TimeCDT,TemperatureF,Dew PointF,Humidity,Sea Level PressureIn,VisibilityMPH,Wind Direction,Wind SpeedMPH,Gust SpeedMPH,PrecipitationIn,Events,Conditions,WindDirDegrees,DateUTC
12:15 AM,70.3,70.3,100,29.81,5.0,South,6.9,-,0.04,Rain,Rain,180,2013-09-21 05:15:00
12:35 AM,69.8,69.8,100,29.80,5.0,South,8.1,-,0.08,Rain,Rain,170,2013-09-21 05:35:00
12:55 AM,69.4,69.4,100,29.79,5.0,South,11.5,18.4,0.12,Rain,Rain,170,2013-09-21 05:55:00
1:15 AM,68.9,68.9,100,29.78,5.0,South,9.2,-,0.03,Rain,Rain,180,2013-09-21 06:15:00
1:35 AM,68.9,68.9,100,29.77,5.0,South,6.9,-,0.06,Rain,Heavy Rain,190,2013-09-21 06:35:00
1:55 AM,68.5,68.5,100,29.78,3.0,West,12.7,18.4,0.25,Rain,Heavy Rain,260,2013-09-21 06:55:00
2:15 AM,66.6,66.6,100,29.78,5.0,NW,8.1,18.4,0.05,Rain,Heavy Rain,320,2013-09-21 07:15:00
2:35 AM,65.5,65.5,100,29.77,5.0,NNW,8.1,-,0.13,Rain,Heavy Rain,330,2013-09-21 07:35:00
2:55 AM,65.3,65.3,100,29.76,7.0,NNW,8.1,-,0.18,Rain,Rain,340,2013-09-21 07:55:00
3:15 AM,65.3,65.3,100,29.76,7.0,NNW,6.9,-,0.05,Rain,Heavy Rain,330,2013-09-21 08:15:00
3:35 AM,65.5,65.5,100,29.76,3.0,North,5.8,-,0.18,Rain,Heavy Rain,10,2013-09-21 08:35:00
3:55 AM,65.5,65.5,100,29.76,4.0,North,3.5,-,0.26,Rain,Heavy Rain,360,2013-09-21 08:55:00
4:15 AM,65.5,65.5,100,29.76,5.0,North,6.9,-,0.05,Rain,Rain,360,2013-09-21 09:15:00
4:35 AM,65.3,65.3,100,29.76,7.0,North,3.5,-,0.10,Rain,Rain,360,2013-09-21 09:35:00
4:55 AM,65.3,65.3,100,29.77,10.0,Calm,Calm,-,0.12,Rain,Rain,0,2013-09-21 09:55:00
5:15 AM,64.9,64.9,100,29.78,10.0,WNW,4.6,-,N/A,Rain,Light Rain,290,2013-09-21 10:15:00
5:35 AM,64.8,64.8,100,29.78,10.0,Calm,Calm,-,0.02,Rain,Rain,0,2013-09-21 10:35:00
5:55 AM,64.6,64.6,100,29.78,10.0,Calm,Calm,-,0.04,Rain,Light Rain,0,2013-09-21 10:55:00
6:15 AM,64.6,64.6,100,29.79,10.0,Calm,Calm,-,0.01,Rain,Light Rain,0,2013-09-21 11:15:00
6:35 AM,64.8,64.8,100,29.79,10.0,West,3.5,-,0.02,Rain,Light Rain,280,2013-09-21 11:35:00
6:55 AM,64.8,64.8,100,29.80,10.0,Calm,Calm,-,0.03,Rain,Light Rain,0,2013-09-21 11:55:00
7:15 AM,64.6,64.6,100,29.80,2.0,NNW,6.9,-,N/A,,Heavy Drizzle,340,2013-09-21 12:15:00
7:35 AM,64.0,64.0,100,29.81,4.0,NNW,5.8,-,0.01,,Light Drizzle,330,2013-09-21 12:35:00
7:55 AM,63.5,63.5,100,29.82,3.0,NNW,4.6,-,0.01,Rain,Heavy Rain,330,2013-09-21 12:55:00
8:15 AM,63.1,63.1,100,29.83,10.0,NW,4.6,-,N/A,,Overcast,320,2013-09-21 13:15:00
8:35 AM,63.0,63.0,100,29.84,10.0,NNW,8.1,-,N/A,,Overcast,330,2013-09-21 13:35:00
8:55 AM,62.8,62.8,100,29.85,10.0,NW,8.1,-,N/A,,Overcast,310,2013-09-21 13:55:00
9:15 AM,62.2,62.2,100,29.85,10.0,North,8.1,-,N/A,,Overcast,360,2013-09-21 14:15:00
9:35 AM,61.3,61.3,100,29.85,10.0,North,8.1,-,N/A,,Overcast,350,2013-09-21 14:35:00
9:55 AM,61.0,61.0,100,29.86,10.0,NNW,5.8,-,N/A,,Mostly Cloudy,340,2013-09-21 14:55:00
10:15 AM,63.0,59.2,87,29.85,10.0,North,8.1,-,N/A,,Scattered Clouds,360,2013-09-21 15:15:00
10:35 AM,65.3,58.3,78,29.85,10.0,NNW,5.8,-,N/A,,Scattered Clouds,330,2013-09-21 15:35:00
10:55 AM,66.7,57.7,73,29.85,10.0,NNW,5.8,-,N/A,,Scattered Clouds,330,2013-09-21 15:55:00
11:15 AM,66.6,57.7,73,29.86,10.0,NNW,8.1,-,N/A,,Scattered Clouds,330,2013-09-21 16:15:00
11:35 AM,67.3,57.4,70,29.85,10.0,NNW,9.2,17.3,N/A,,Scattered Clouds,340,2013-09-21 16:35:00
11:55 AM,67.1,56.3,68,29.85,10.0,North,8.1,-,N/A,,Scattered Clouds,350,2013-09-21 16:55:00
12:15 PM,66.6,55.4,67,29.85,10.0,NNW,8.1,-,N/A,,Clear,330,2013-09-21 17:15:00
12:35 PM,68.2,56.3,66,29.85,10.0,WNW,6.9,-,N/A,,Scattered Clouds,300,2013-09-21 17:35:00
12:55 PM,70.7,56.8,61,29.85,10.0,North,6.9,-,N/A,,Scattered Clouds,10,2013-09-21 17:55:00
1:15 PM,71.1,56.3,60,29.84,10.0,NNW,8.1,-,N/A,,Scattered Clouds,330,2013-09-21 18:15:00
1:35 PM,71.2,55.6,58,29.84,10.0,NNW,8.1,-,N/A,,Mostly Cloudy,340,2013-09-21 18:35:00
1:55 PM,71.6,55.9,58,29.84,10.0,NNW,8.1,16.1,N/A,,Scattered Clouds,330,2013-09-21 18:55:00
2:15 PM,71.8,55.0,55,29.84,10.0,NW,6.9,-,N/A,,Scattered Clouds,320,2013-09-21 19:15:00
2:35 PM,71.2,54.5,55,29.83,10.0,NNW,5.8,-,N/A,,Scattered Clouds,330,2013-09-21 19:35:00
2:55 PM,70.0,53.8,56,29.83,10.0,NNW,3.5,-,N/A,,Scattered Clouds,340,2013-09-21 19:55:00
3:15 PM,70.7,54.3,56,29.83,10.0,NNW,8.1,-,N/A,,Mostly Cloudy,340,2013-09-21 20:15:00
3:35 PM,70.2,53.4,55,29.83,10.0,NNW,10.4,16.1,N/A,,Scattered Clouds,340,2013-09-21 20:35:00
3:55 PM,71.8,53.2,52,29.83,10.0,NW,4.6,-,N/A,,Scattered Clouds,320,2013-09-21 20:55:00
4:15 PM,71.1,53.4,54,29.83,10.0,North,8.1,-,N/A,,Scattered Clouds,360,2013-09-21 21:15:00
4:35 PM,69.4,52.9,56,29.83,10.0,NNW,4.6,-,N/A,,Scattered Clouds,330,2013-09-21 21:35:00
4:55 PM,70.9,53.2,54,29.83,10.0,North,9.2,-,N/A,,Scattered Clouds,360,2013-09-21 21:55:00
5:15 PM,70.2,52.7,54,29.84,10.0,NNW,6.9,-,N/A,,Scattered Clouds,340,2013-09-21 22:15:00
5:35 PM,67.6,52.3,58,29.84,10.0,NNW,4.6,-,N/A,,Scattered Clouds,340,2013-09-21 22:35:00
5:55 PM,67.5,52.5,59,29.85,10.0,NNW,3.5,-,N/A,,Scattered Clouds,340,2013-09-21 22:55:00
6:15 PM,66.0,53.1,63,29.85,10.0,NW,3.5,-,N/A,,Scattered Clouds,320,2013-09-21 23:15:00
6:35 PM,64.0,52.9,67,29.85,10.0,Calm,Calm,-,N/A,,Scattered Clouds,0,2013-09-21 23:35:00
6:55 PM,62.1,53.1,72,29.86,10.0,Calm,Calm,-,N/A,,Clear,0,2013-09-21 23:55:00
7:15 PM,60.8,53.1,76,29.86,10.0,Calm,Calm,-,N/A,,Scattered Clouds,0,2013-09-22 00:15:00
7:35 PM,59.7,53.6,80,29.87,10.0,Calm,Calm,-,N/A,,Mostly Cloudy,0,2013-09-22 00:35:00
7:55 PM,59.2,53.8,82,29.87,10.0,Calm,Calm,-,N/A,,Mostly Cloudy,0,2013-09-22 00:55:00
8:15 PM,57.9,53.4,85,29.87,10.0,Calm,Calm,-,N/A,,Scattered Clouds,0,2013-09-22 01:15:00
8:35 PM,57.6,53.1,85,29.87,10.0,Calm,Calm,-,N/A,,Clear,0,2013-09-22 01:35:00
8:55 PM,57.4,52.5,84,29.88,10.0,Calm,Calm,-,N/A,,Clear,0,2013-09-22 01:55:00
9:15 PM,56.5,52.3,86,29.88,10.0,Calm,Calm,-,N/A,,Clear,0,2013-09-22 02:15:00
9:35 PM,55.4,54.5,97,29.88,10.0,Calm,Calm,-,N/A,,Clear,0,2013-09-22 02:35:00
9:55 PM,54.7,54.7,100,29.89,10.0,Calm,Calm,-,N/A,,Clear,0,2013-09-22 02:55:00
10:15 PM,54.5,54.5,100,29.89,10.0,Calm,Calm,-,N/A,,Clear,0,2013-09-22 03:15:00
10:35 PM,53.8,53.8,100,29.89,10.0,Calm,Calm,-,N/A,,Clear,0,2013-09-22 03:35:00
10:55 PM,54.0,54.0,100,29.89,10.0,Calm,Calm,-,N/A,,Clear,0,2013-09-22 03:55:00
11:15 PM,53.2,53.2,100,29.90,10.0,Calm,Calm,-,N/A,,Clear,0,2013-09-22 04:15:00
11:35 PM,53.6,53.1,98,29.89,10.0,Calm,Calm,-,N/A,,Clear,0,2013-09-22 04:35:00
11:55 PM,52.7,52.7,100,29.89,10.0,Calm,Calm,-,N/A,,Clear,0,2013-09-22 04:55:00